Time;durP1;ratioP1;P1;durP2;ratioP2;P2;SDS_P1;SDS_P2;PMS_P1;PMS_P2;Temp;Humidity;BMP_temperature;BMP_pressure;BME280_temperature;BME280_humidity;BME280_pressure;Samples;Min_cycle;Max_cycle;Signal;HPM_P1;HPM_P2
2022/04/13 00:00:16;;;;;;;4.50;1.92;;;8.20;99.90;;;;;;4913958;29;20040;-48
2022/04/13 00:02:43;;;;;;;7.70;2.75;;;8.30;99.90;;;;;;4916671;29;20048;-49
2022/04/13 00:05:10;;;;;;;;;;;8.30;99.90;;;;;;4917962;29;20063;-50
2022/04/13 00:07:37;;;;;;;5.53;2.50;;;8.40;99.90;;;;;;4917837;29;19934;-52
2022/04/13 00:10:07;;;;;;;4.07;2.47;;;8.40;99.90;;;;;;4913742;29;20036;-49
2022/04/13 00:12:34;;;;;;;6.28;2.85;;;8.30;99.90;;;;;;4917729;29;20040;-50
2022/04/13 00:15:02;;;;;;;5.38;2.67;;;8.40;99.90;;;;;;4917346;29;20481;-49
2022/04/13 00:17:30;;;;;;;6.50;2.90;;;8.30;99.90;;;;;;4917612;29;20040;-50
2022/04/13 00:19:58;;;;;;;5.20;2.55;;;8.20;99.90;;;;;;4911158;29;20171;-51
2022/04/13 00:22:25;;;;;;;6.80;2.85;;;8.20;99.90;;;;;;4905558;29;20127;-51
2022/04/13 00:24:51;;;;;;;10.80;2.80;;;8.20;99.90;;;;;;4912850;29;20104;-49
2022/04/13 00:27:18;;;;;;;7.05;2.55;;;8.20;99.90;;;;;;4917436;29;20048;-49
2022/04/13 00:29:45;;;;;;;6.13;2.70;;;8.30;99.90;;;;;;4917047;29;20048;-49
2022/04/13 00:32:12;;;;;;;8.27;2.47;;;8.30;99.90;;;;;;4909196;29;20564;-50
2022/04/13 00:34:39;;;;;;;5.28;2.17;;;8.40;99.90;;;;;;4917242;29;20572;-50
2022/04/13 00:37:06;;;;;;;4.80;2.13;;;8.40;99.90;;;;;;4910784;29;20052;-49
2022/04/13 00:39:33;;;;;;;6.95;2.10;;;8.50;99.90;;;;;;4916831;29;20044;-49
2022/04/13 00:42:04;;;;;;;;;;;8.50;99.90;;;;;;4917607;29;20071;-49
2022/04/13 00:44:31;;;;;;;4.40;1.92;;;8.50;99.90;;;;;;4916951;29;20003;-49
2022/04/13 00:47:02;;;;;;;6.63;1.77;;;8.50;99.90;;;;;;4909443;29;20116;-50
2022/04/13 00:49:28;;;;;;;5.10;1.80;;;8.40;99.90;;;;;;4916574;29;20048;-49
2022/04/13 00:51:58;;;;;;;11.02;2.08;;;8.30;99.90;;;;;;4917209;29;20465;-50
2022/04/13 00:54:29;;;;;;;4.75;1.73;;;8.20;99.90;;;;;;4914194;29;20056;-49
2022/04/13 00:56:56;;;;;;;1.92;1.63;;;8.20;99.90;;;;;;4912569;29;20048;-49
2022/04/13 00:59:26;;;;;;;2.58;1.40;;;8.10;99.90;;;;;;4916310;29;20081;-48
2022/04/13 01:01:56;;;;;;;2.90;1.52;;;8.10;99.90;;;;;;4916858;29;20056;-50
2022/04/13 01:04:28;;;;;;;3.50;1.50;;;8.20;99.90;;;;;;4913395;29;20064;-50
2022/04/13 01:06:55;;;;;;;4.60;1.60;;;8.20;99.90;;;;;;4912498;29;20391;-50
2022/04/13 01:09:23;;;;;;;1.73;1.30;;;8.20;99.90;;;;;;4916556;29;20059;-49
2022/04/13 01:11:50;;;;;;;3.72;1.40;;;8.10;99.90;;;;;;4916342;29;20055;-50
2022/04/13 01:14:16;;;;;;;6.80;1.20;;;8.10;99.90;;;;;;4910044;29;20048;-49
2022/04/13 01:16:43;;;;;;;3.97;1.52;;;7.90;99.90;;;;;;4916570;29;20052;-49
2022/04/13 01:19:13;;;;;;;3.35;1.23;;;7.90;99.90;;;;;;4916644;29;20159;-49
2022/04/13 01:21:52;;;;;;;2.50;1.55;;;7.80;99.90;;;;;;4910061;29;20055;-49
2022/04/13 01:24:21;;;;;;;5.97;1.30;;;7.70;99.90;;;;;;4915990;29;20044;-50
2022/04/13 01:26:48;;;;;;;2.28;1.38;;;7.60;99.90;;;;;;4916393;29;20048;-49
2022/04/13 01:29:15;;;;;;;5.38;1.67;;;7.60;99.90;;;;;;4914752;29;20063;-49
2022/04/13 01:31:43;;;;;;;4.32;1.73;;;7.50;99.90;;;;;;4910124;29;20458;-48
2022/04/13 01:34:10;;;;;;;5.90;2.35;;;7.40;99.90;;;;;;4915954;29;20055;-48
2022/04/13 01:36:37;;;;;;;3.28;2.20;;;7.20;99.90;;;;;;4916311;29;20056;-49
2022/04/13 01:39:05;;;;;;;7.72;2.63;;;7.00;99.90;;;;;;4913959;29;20056;-49
2022/04/13 01:41:33;;;;;;;5.43;2.40;;;7.00;99.90;;;;;;4915745;29;20051;-49
2022/04/13 01:44:00;;;;;;;5.82;2.58;;;6.90;99.90;;;;;;4915896;29;20052;-48
2022/04/13 01:46:26;;;;;;;5.28;2.40;;;7.00;99.90;;;;;;4909995;29;20405;-49
2022/04/13 01:48:53;;;;;;;3.75;2.17;;;7.00;99.90;;;;;;4915870;29;20040;-49
2022/04/13 01:51:20;;;;;;;4.80;2.13;;;7.10;99.90;;;;;;4915887;29;20043;-49
2022/04/13 01:53:49;;;;;;;5.38;2.00;;;7.00;99.90;;;;;;4915906;29;20054;-51
2022/04/13 01:56:16;;;;;;;2.60;1.70;;;7.10;99.90;;;;;;4908871;29;20048;-49
2022/04/13 01:58:43;;;;;;;5.75;1.83;;;7.00;99.90;;;;;;4915596;29;20044;-49
2022/04/13 02:01:11;;;;;;;3.10;1.80;;;7.00;99.90;;;;;;4915452;29;20115;-49
2022/04/13 02:03:38;;;;;;;7.32;1.40;;;7.00;99.90;;;;;;4912382;29;20048;-51
2022/04/13 02:06:05;;;;;;;7.43;1.63;;;7.00;99.90;;;;;;4908097;29;20052;-51
2022/04/13 02:08:31;;;;;;;5.25;2.20;;;7.00;99.90;;;;;;4914913;29;20040;-49
2022/04/13 02:10:58;;;;;;;3.28;2.00;;;7.00;99.90;;;;;;4915194;29;20054;-49
2022/04/13 02:13:25;;;;;;;3.10;1.88;;;7.00;99.90;;;;;;4914193;29;20544;-50
2022/04/13 02:15:52;;;;;;;2.63;1.80;;;7.00;99.90;;;;;;4919204;23;20079;-57
2022/04/13 02:18:19;;;;;;;2.67;1.67;;;7.00;99.90;;;;;;4908058;29;20501;-55
2022/04/13 02:20:45;;;;;;;6.82;1.55;;;7.00;99.90;;;;;;4909516;29;20055;-56
2022/04/13 02:23:12;;;;;;;2.75;1.17;;;6.90;99.90;;;;;;4915404;29;20076;-57
2022/04/13 02:25:39;;;;;;;4.10;1.57;;;6.90;99.90;;;;;;4897618;29;20040;-56
2022/04/13 02:28:06;;;;;;;4.30;1.50;;;6.80;99.90;;;;;;4896166;29;20297;-55
2022/04/13 02:30:33;;;;;;;;;;;6.70;99.90;;;;;;4896576;29;20517;-55
2022/04/13 02:33:00;;;;;;;3.20;1.65;;;6.60;99.90;;;;;;4896531;29;20567;-57
2022/04/13 02:35:27;;;;;;;6.55;1.77;;;6.60;99.90;;;;;;4891269;29;20072;-55
2022/04/13 02:37:54;;;;;;;2.13;1.30;;;6.50;99.90;;;;;;4896218;29;20064;-58
2022/04/13 02:40:21;;;;;;;2.90;1.40;;;6.50;99.90;;;;;;4896111;29;20513;-57
2022/04/13 02:42:47;;;;;;;2.90;1.30;;;6.50;99.90;;;;;;4896358;29;20341;-58
2022/04/13 02:45:14;;;;;;;3.70;1.63;;;6.40;99.90;;;;;;4894666;29;20798;-57
2022/04/13 02:47:41;;;;;;;3.58;1.25;;;6.30;99.90;;;;;;4896384;29;20044;-58
2022/04/13 02:50:08;;;;;;;2.88;1.00;;;6.20;99.90;;;;;;4896119;29;20459;-58
2022/04/13 02:52:35;;;;;;;;;;;6.10;99.90;;;;;;4892248;29;20056;-58
2022/04/13 02:55:02;;;;;;;3.42;1.67;;;6.20;99.90;;;;;;4892915;29;20384;-58
2022/04/13 02:57:29;;;;;;;3.90;1.63;;;6.20;99.90;;;;;;4896258;29;20049;-58
2022/04/13 02:59:55;;;;;;;2.60;1.60;;;6.20;99.90;;;;;;4895924;29;20044;-57
2022/04/13 03:02:22;;;;;;;1.95;1.17;;;6.20;99.90;;;;;;4889110;29;20057;-58
2022/04/13 03:04:49;;;;;;;5.57;1.40;;;6.20;99.90;;;;;;4895891;29;20127;-59
2022/04/13 03:07:17;;;;;;;2.13;1.40;;;6.20;99.90;;;;;;4895978;29;20041;-58
2022/04/13 03:09:44;;;;;;;2.75;1.33;;;6.20;99.90;;;;;;4891094;29;20049;-58
2022/04/13 03:12:12;;;;;;;6.13;1.48;;;6.20;99.90;;;;;;4893915;29;20044;-58
2022/04/13 03:14:39;;;;;;;;;;;6.10;99.90;;;;;;4896625;29;20498;-58
2022/04/13 03:17:06;;;;;;;2.58;1.67;;;6.00;99.90;;;;;;4895099;29;19924;-58
2022/04/13 03:19:34;;;;;;;2.00;1.20;;;6.00;99.90;;;;;;4895507;29;20417;-57
2022/04/13 03:22:00;;;;;;;4.93;1.45;;;6.00;99.90;;;;;;4896144;29;20120;-58
2022/04/13 03:24:27;;;;;;;6.03;1.45;;;5.90;99.90;;;;;;4895849;29;20096;-58
2022/04/13 03:26:54;;;;;;;3.15;1.20;;;5.90;99.90;;;;;;4892010;29;20529;-57
2022/04/13 03:29:21;;;;;;;2.88;1.73;;;5.90;99.90;;;;;;4894945;29;20096;-58
2022/04/13 03:31:48;;;;;;;2.75;1.58;;;5.90;99.90;;;;;;4895449;29;20454;-57
2022/04/13 03:34:20;;;;;;;4.72;1.50;;;5.90;99.90;;;;;;4895265;29;20055;-57
2022/04/13 03:36:47;;;;;;;2.60;1.50;;;5.80;99.90;;;;;;4893682;29;20051;-58
2022/04/13 03:39:15;;;;;;;4.63;1.73;;;5.80;99.90;;;;;;4899016;29;20417;-57
2022/04/13 03:41:42;;;;;;;4.75;1.70;;;5.80;99.90;;;;;;4898603;29;20100;-58
2022/04/13 03:44:09;;;;;;;2.83;1.85;;;5.80;99.90;;;;;;4898649;29;20137;-57
2022/04/13 03:46:35;;;;;;;4.20;2.42;;;5.70;99.90;;;;;;4897208;29;20040;-58
2022/04/13 03:49:03;;;;;;;4.10;1.83;;;5.60;99.90;;;;;;4899143;29;20497;-57
2022/04/13 03:51:29;;;;;;;4.25;2.17;;;5.60;99.90;;;;;;4898983;29;20100;-57
2022/04/13 03:53:56;;;;;;;5.10;2.30;;;5.50;99.90;;;;;;4896443;29;20445;-56
2022/04/13 03:56:23;;;;;;;3.40;1.55;;;5.50;99.90;;;;;;4898554;29;20052;-58
2022/04/13 03:58:49;;;;;;;3.37;1.97;;;5.50;99.90;;;;;;4898941;29;20575;-58
2022/04/13 04:01:16;;;;;;;3.33;2.40;;;5.50;99.90;;;;;;4892777;29;20305;-58
2022/04/13 04:03:43;;;;;;;4.78;1.83;;;5.50;99.90;;;;;;4882088;29;20669;-57
2022/04/13 04:06:10;;;;;;;3.53;1.60;;;5.60;99.90;;;;;;4898654;29;20045;-58
2022/04/13 04:08:37;;;;;;;2.58;1.58;;;5.60;99.90;;;;;;4899075;29;20299;-58
2022/04/13 04:11:03;;;;;;;6.25;2.10;;;5.60;99.90;;;;;;4896212;29;20044;-58
2022/04/13 04:13:30;;;;;;;3.25;1.88;;;5.50;99.90;;;;;;4898918;29;20051;-57
2022/04/13 04:15:59;;;;;;;2.55;1.35;;;5.50;99.90;;;;;;4897812;29;20052;-58
2022/04/13 04:18:26;;;;;;;5.57;2.30;;;5.50;99.90;;;;;;4898813;29;20071;-57
2022/04/13 04:20:53;;;;;;;6.07;1.70;;;5.50;99.90;;;;;;4894140;29;20071;-57
2022/04/13 04:23:19;;;;;;;2.78;1.52;;;5.50;99.90;;;;;;4898607;29;20108;-58
2022/04/13 04:25:46;;;;;;;3.00;1.70;;;5.60;99.90;;;;;;4897650;29;20048;-58
2022/04/13 04:28:13;;;;;;;3.47;1.60;;;5.60;99.90;;;;;;4890590;29;20085;-58
2022/04/13 04:30:41;;;;;;;5.10;2.20;;;5.50;99.90;;;;;;4898074;29;20060;-58
2022/04/13 04:33:09;;;;;;;2.45;1.50;;;5.60;99.90;;;;;;4898461;29;20075;-58
2022/04/13 04:35:36;;;;;;;4.60;2.22;;;5.60;99.90;;;;;;4896370;29;20041;-58
2022/04/13 04:38:03;;;;;;;7.65;2.10;;;5.70;99.90;;;;;;4897498;29;20108;-58
2022/04/13 04:40:30;;;;;;;3.58;1.67;;;5.60;99.90;;;;;;4897218;29;20100;-58
2022/04/13 04:43:00;;;;;;;6.30;1.92;;;5.50;99.90;;;;;;4896665;29;20044;-57
2022/04/13 04:45:27;;;;;;;6.32;2.90;;;5.50;99.90;;;;;;4897389;29;20079;-57
2022/04/13 04:47:56;;;;;;;31.83;11.60;;;5.60;99.90;;;;;;4897872;29;20045;-58
2022/04/13 04:50:23;;;;;;;30.27;13.55;;;5.60;99.90;;;;;;4896887;29;20105;-57
2022/04/13 04:52:50;;;;;;;32.40;13.43;;;5.60;99.90;;;;;;4894507;29;20044;-57
2022/04/13 04:55:17;;;;;;;28.50;11.73;;;5.60;99.90;;;;;;4897393;29;20052;-57
2022/04/13 04:57:46;;;;;;;23.77;6.47;;;5.60;99.90;;;;;;4897535;29;20063;-58
2022/04/13 05:00:17;;;;;;;22.80;7.10;;;5.60;99.90;;;;;;4894503;29;20049;-57
2022/04/13 05:02:47;;;;;;;17.58;6.90;;;5.60;99.90;;;;;;4897872;29;20079;-57
2022/04/13 05:05:14;;;;;;;10.13;5.38;;;5.70;99.90;;;;;;4897774;29;20057;-58
2022/04/13 05:07:41;;;;;;;14.75;5.22;;;5.70;99.90;;;;;;4897842;29;20045;-58
2022/04/13 05:10:08;;;;;;;;;;;5.70;99.90;;;;;;4894864;29;20041;-58
2022/04/13 05:12:49;;;;;;;7.82;2.92;;;5.80;99.90;;;;;;4898255;29;19923;-58
2022/04/13 05:15:16;;;;;;;7.68;2.88;;;5.80;99.90;;;;;;4897723;29;20074;-58
2022/04/13 05:17:43;;;;;;;7.40;2.67;;;5.90;99.90;;;;;;4895680;29;20417;-57
2022/04/13 05:20:11;;;;;;;9.77;3.50;;;6.00;99.90;;;;;;4897151;29;20096;-58
2022/04/13 05:22:38;;;;;;;7.65;2.67;;;6.10;99.90;;;;;;4897312;29;20088;-57
2022/04/13 05:25:06;;;;;;;7.45;2.38;;;6.20;99.90;;;;;;4897338;29;20044;-58
2022/04/13 05:27:33;;;;;;;6.55;2.22;;;6.20;99.90;;;;;;4892121;29;20498;-58
2022/04/13 05:30:00;;;;;;;10.63;2.65;;;6.20;99.90;;;;;;4896794;29;20056;-58
2022/04/13 05:32:27;;;;;;;4.63;2.47;;;6.20;99.90;;;;;;4897272;29;20080;-58
2022/04/13 05:35:01;;;;;;;6.40;2.38;;;6.20;99.90;;;;;;4890752;29;20053;-58
2022/04/13 05:37:28;;;;;;;7.40;2.50;;;6.30;99.90;;;;;;4889438;29;20044;-57
2022/04/13 05:39:55;;;;;;;6.25;2.35;;;6.30;99.90;;;;;;4896884;29;20049;-58
2022/04/13 05:42:23;;;;;;;5.25;2.15;;;6.40;99.90;;;;;;4897507;29;20048;-58
2022/04/13 05:44:50;;;;;;;10.07;3.65;;;6.40;99.90;;;;;;4893655;29;20048;-58
2022/04/13 05:47:18;;;;;;;9.57;2.70;;;6.60;99.90;;;;;;4896288;29;20056;-58
2022/04/13 05:49:44;;;;;;;14.65;6.20;;;6.70;99.90;;;;;;4894824;29;20056;-57
2022/04/13 05:52:11;;;;;;;8.85;3.20;;;6.80;99.90;;;;;;4896913;29;20482;-56
2022/04/13 05:54:38;;;;;;;6.72;3.28;;;6.90;99.90;;;;;;4891028;29;20048;-58
2022/04/13 05:57:05;;;;;;;12.55;4.32;;;7.00;99.90;;;;;;4896693;29;20040;-58
2022/04/13 05:59:31;;;;;;;12.93;4.80;;;7.20;99.90;;;;;;4896373;29;20040;-58
2022/04/13 06:01:58;;;;;;;9.50;4.28;;;7.30;99.90;;;;;;4890852;29;20048;-57
2022/04/13 06:04:25;;;;;;;9.50;3.10;;;7.40;99.90;;;;;;4896457;29;20123;-58
2022/04/13 06:06:54;;;;;;;11.40;3.97;;;7.60;99.90;;;;;;4896688;29;20048;-58
2022/04/13 06:09:22;;;;;;;10.35;4.15;;;7.60;99.90;;;;;;4896798;29;20108;-58
2022/04/13 06:11:49;;;;;;;10.45;4.00;;;7.70;99.90;;;;;;4892869;29;20055;-56
2022/04/13 06:14:16;;;;;;;;;;;7.80;99.90;;;;;;4897103;29;20081;-57
2022/04/13 06:16:43;;;;;;;10.82;4.10;;;7.90;99.90;;;;;;4896428;29;19971;-58
2022/04/13 06:19:11;;;;;;;14.75;4.15;;;8.10;99.90;;;;;;4894242;29;20056;-58
2022/04/13 06:21:38;;;;;;;9.63;4.10;;;8.30;99.90;;;;;;4896182;29;20044;-58
2022/04/13 06:24:05;;;;;;;11.52;4.75;;;8.50;99.90;;;;;;4896255;29;20059;-58
2022/04/13 06:26:32;;;;;;;8.55;4.85;;;8.60;99.90;;;;;;4896535;29;20052;-58
2022/04/13 06:28:58;;;;;;;7.10;3.20;;;8.80;99.90;;;;;;4895646;29;20044;-58
2022/04/13 06:31:25;;;;;;;10.60;3.55;;;9.00;99.90;;;;;;4895808;29;20100;-58
2022/04/13 06:33:52;;;;;;;8.38;2.95;;;9.20;99.90;;;;;;4896471;29;20104;-57
2022/04/13 06:36:19;;;;;;;9.23;4.05;;;9.30;99.90;;;;;;4894211;29;20441;-57
2022/04/13 06:38:46;;;;;;;3.92;2.30;;;9.40;99.90;;;;;;4896373;29;20097;-57
2022/04/13 06:41:13;;;;;;;9.02;3.05;;;9.40;99.90;;;;;;4896015;29;20052;-58
2022/04/13 06:43:40;;;;;;;6.45;3.10;;;9.40;99.90;;;;;;4896377;29;20063;-58
2022/04/13 06:46:07;;;;;;;;;;;9.50;99.90;;;;;;4889758;29;20044;-58
2022/04/13 06:48:34;;;;;;;8.00;2.97;;;9.60;99.90;;;;;;4896155;29;19923;-58
2022/04/13 06:51:03;;;;;;;8.48;2.83;;;9.70;99.90;;;;;;4895809;29;20051;-58
2022/04/13 06:53:29;;;;;;;8.35;3.20;;;9.80;99.90;;;;;;4896269;29;20040;-57
2022/04/13 06:55:56;;;;;;;7.93;3.95;;;9.80;99.90;;;;;;4893082;29;20045;-58
2022/04/13 06:58:23;;;;;;;13.88;3.65;;;10.00;99.90;;;;;;4896109;29;20104;-59
2022/04/13 07:00:50;;;;;;;7.53;2.60;;;10.10;99.90;;;;;;4895549;29;20057;-58
2022/04/13 07:03:16;;;;;;;6.90;3.75;;;10.20;99.90;;;;;;4892385;29;20076;-58
2022/04/13 07:05:43;;;;;;;8.00;2.80;;;10.30;99.90;;;;;;4895743;29;20049;-58
2022/04/13 07:08:10;;;;;;;6.40;3.58;;;10.40;99.90;;;;;;4896201;29;20041;-59
2022/04/13 07:10:37;;;;;;;6.57;2.95;;;10.50;99.90;;;;;;4891341;29;20049;-58
2022/04/13 07:13:10;;;;;;;7.10;3.03;;;10.70;99.90;;;;;;4898489;29;20538;-58
2022/04/13 07:15:37;;;;;;;11.15;3.35;;;10.90;99.90;;;;;;4899658;29;20048;-57
2022/04/13 07:18:04;;;;;;;6.13;2.72;;;11.00;99.90;;;;;;4892389;29;20053;-59
2022/04/13 07:20:31;;;;;;;7.97;2.88;;;11.10;99.90;;;;;;4899093;29;20498;-59
2022/04/13 07:22:58;;;;;;;4.05;2.80;;;11.30;99.90;;;;;;4882824;29;20062;-58
2022/04/13 07:25:25;;;;;;;11.80;2.78;;;11.50;99.90;;;;;;4899368;29;20037;-58
2022/04/13 07:27:52;;;;;;;6.15;2.80;;;11.70;99.90;;;;;;4898170;29;20040;-58
2022/04/13 07:30:19;;;;;;;7.93;2.58;;;11.80;99.90;;;;;;4899134;29;20040;-58
2022/04/13 07:32:47;;;;;;;6.10;2.67;;;11.90;99.90;;;;;;4899415;29;20045;-59
2022/04/13 07:35:14;;;;;;;4.22;2.38;;;12.00;99.90;;;;;;4896085;29;20049;-58
2022/04/13 07:37:42;;;;;;;7.90;2.22;;;12.10;99.90;;;;;;4882665;29;20056;-59
2022/04/13 07:40:11;;;;;;;7.20;2.30;;;12.20;99.90;;;;;;4898890;29;20049;-58
2022/04/13 07:42:38;;;;;;;4.68;2.47;;;12.50;99.90;;;;;;4896723;29;20052;-57
2022/04/13 07:45:06;;;;;;;;;;;12.50;99.90;;;;;;4896498;29;20148;-59
2022/04/13 07:47:33;;;;;;;3.60;1.80;;;12.60;99.90;;;;;;4899351;29;19923;-59
2022/04/13 07:49:59;;;;;;;7.10;2.65;;;12.70;99.90;;;;;;4898891;29;20536;-59
2022/04/13 07:52:26;;;;;;;4.97;2.20;;;12.90;99.90;;;;;;4895810;29;20062;-59
2022/04/13 07:54:53;;;;;;;6.38;2.30;;;13.00;99.90;;;;;;4898937;29;20573;-59
2022/04/13 07:57:20;;;;;;;5.32;2.25;;;13.20;99.90;;;;;;4899090;29;20100;-59
2022/04/13 07:59:46;;;;;;;5.68;2.60;;;13.40;99.90;;;;;;4893898;29;20509;-59
2022/04/13 08:02:17;;;;;;;4.63;2.50;;;13.50;99.90;;;;;;4897252;29;20049;-58
2022/04/13 08:04:44;;;;;;;5.00;2.00;;;13.50;99.90;;;;;;4898996;29;20048;-58
2022/04/13 08:07:11;;;;;;;4.15;2.20;;;13.60;99.90;;;;;;4898759;29;20048;-59
2022/04/13 08:09:37;;;;;;;5.68;2.65;;;13.60;99.90;;;;;;4892257;29;20051;-58
2022/04/13 08:12:05;;;;;;;9.75;2.03;;;13.80;99.90;;;;;;4898884;29;20040;-58
2022/04/13 08:14:31;;;;;;;7.07;2.83;;;13.80;99.90;;;;;;4898873;29;20116;-58
2022/04/13 08:17:24;;;;;;;7.55;2.75;;;14.00;99.90;;;;;;4924680;23;20054;-52
2022/04/13 08:20:40;;;;;;;5.82;3.08;;;14.10;99.90;;;;;;4900723;29;20097;-48
2022/04/13 08:23:06;;;;;;;5.80;2.45;;;14.20;99.90;;;;;;4917197;29;20044;-52
2022/04/13 08:25:33;;;;;;;5.13;2.65;;;14.20;99.90;;;;;;4916799;29;20405;-52
2022/04/13 08:28:00;;;;;;;8.88;2.92;;;14.30;99.90;;;;;;4909482;29;20059;-49
2022/04/13 08:30:27;;;;;;;11.55;3.15;;;14.50;99.90;;;;;;4909312;29;20099;-51
2022/04/13 08:32:54;;;;;;;3.40;2.10;;;14.80;99.90;;;;;;4917384;29;20462;-49
2022/04/13 08:35:20;;;;;;;8.05;2.53;;;15.10;99.90;;;;;;4917279;29;20577;-49
2022/04/13 08:37:47;;;;;;;9.15;2.47;;;15.20;99.90;;;;;;4915086;29;20040;-49
2022/04/13 08:40:16;;;;;;;7.90;2.13;;;15.40;99.90;;;;;;4916676;29;20063;-49
2022/04/13 08:43:08;;;;;;;5.95;2.72;;;15.50;99.90;;;;;;4917161;29;20078;-49
2022/04/13 08:45:44;;;;;;;6.63;2.30;;;15.60;99.90;;;;;;4908695;29;20083;-48
2022/04/13 08:48:12;;;;;;;6.18;2.25;;;15.70;99.90;;;;;;4916881;29;20120;-50
2022/04/13 08:50:42;;;;;;;;;;;15.90;99.90;;;;;;4916979;29;20405;-49
2022/04/13 08:53:12;;;;;;;7.03;2.20;;;16.10;99.90;;;;;;4916869;29;19927;-51
2022/04/13 08:55:46;;;;;;;7.07;2.53;;;16.30;99.90;;;;;;4915535;29;20080;-51
2022/04/13 08:58:25;;;;;;;6.43;2.22;;;16.40;99.90;;;;;;4916882;29;20572;-51
2022/04/13 09:00:57;;;;;;;3.50;2.25;;;16.40;98.70;;;;;;4916537;29;20051;-50
2022/04/13 09:03:36;;;;;;;6.18;2.53;;;16.70;99.90;;;;;;4912594;29;20040;-50
2022/04/13 09:06:05;;;;;;;8.73;2.30;;;16.80;99.30;;;;;;4916693;29;20040;-49
2022/04/13 09:08:52;;;;;;;4.93;2.28;;;16.90;99.30;;;;;;4916637;29;20044;-52
2022/04/13 09:11:21;;;;;;;5.38;2.63;;;17.00;98.80;;;;;;4916679;29;20036;-50
2022/04/13 09:13:48;;;;;;;4.78;2.55;;;17.10;98.30;;;;;;4907934;29;20445;-49
2022/04/13 09:16:16;;;;;;;4.78;3.08;;;17.00;98.80;;;;;;4917906;29;20059;-50
2022/04/13 09:18:43;;;;;;;;;;;17.10;97.80;;;;;;4935728;29;20043;-49
2022/04/13 09:21:17;;;;;;;4.60;2.90;;;17.20;96.80;;;;;;4934992;29;19926;-49
2022/04/13 09:23:44;;;;;;;4.50;3.05;;;17.20;96.60;;;;;;4914963;29;20059;-49
2022/04/13 09:26:13;;;;;;;9.45;3.70;;;17.10;95.50;;;;;;4915646;29;20115;-49
2022/04/13 09:28:41;;;;;;;6.25;3.50;;;17.30;96.10;;;;;;4916247;29;20041;-49
2022/04/13 09:31:08;;;;;;;8.63;2.97;;;17.00;95.40;;;;;;4915871;29;20082;-50
2022/04/13 09:33:35;;;;;;;10.43;3.55;;;17.00;95.50;;;;;;4912037;29;20119;-50
2022/04/13 09:36:01;;;;;;;6.88;3.17;;;17.10;95.00;;;;;;4915923;29;20044;-49
2022/04/13 09:38:28;;;;;;;6.57;2.90;;;17.30;95.00;;;;;;4916051;29;20043;-50
2022/04/13 09:41:06;;;;;;;6.68;2.50;;;17.40;93.40;;;;;;4913179;29;20096;-49
2022/04/13 09:43:33;;;;;;;6.93;2.72;;;17.40;94.50;;;;;;4909199;29;20048;-49
2022/04/13 09:46:00;;;;;;;10.55;2.97;;;17.60;93.60;;;;;;4915659;29;20047;-50
2022/04/13 09:48:28;;;;;;;6.10;2.78;;;17.80;93.00;;;;;;4916078;29;20055;-51
2022/04/13 09:51:00;;;;;;;8.35;2.53;;;17.60;92.80;;;;;;4914926;29;20055;-49
2022/04/13 09:53:27;;;;;;;4.30;2.25;;;17.70;93.10;;;;;;4907752;29;20056;-50
2022/04/13 09:56:01;;;;;;;;;;;17.90;91.80;;;;;;4916327;29;20420;-49
2022/04/13 09:58:33;;;;;;;7.38;2.67;;;18.00;91.90;;;;;;4910838;29;19979;-49
2022/04/13 10:01:02;;;;;;;4.03;2.50;;;18.00;91.60;;;;;;4915211;29;20096;-49
2022/04/13 10:03:29;;;;;;;5.97;2.35;;;18.00;92.20;;;;;;4915498;29;20131;-49
2022/04/13 10:05:57;;;;;;;4.78;2.63;;;18.10;91.80;;;;;;4915488;29;20047;-50
2022/04/13 10:08:26;;;;;;;7.25;2.58;;;18.20;90.80;;;;;;4912258;29;20040;-52
2022/04/13 10:10:58;;;;;;;4.38;2.20;;;18.30;91.90;;;;;;4915286;29;20044;-50
2022/04/13 10:13:38;;;;;;;4.95;2.45;;;18.30;91.00;;;;;;4915343;29;20044;-50
2022/04/13 10:16:09;;;;;;;5.88;2.38;;;18.40;90.50;;;;;;4914577;29;20063;-51
2022/04/13 10:18:59;;;;;;;4.38;2.08;;;18.40;89.50;;;;;;4915434;29;20055;-49
2022/04/13 10:21:36;;;;;;;3.55;1.90;;;18.50;89.10;;;;;;4915088;29;20052;-49
2022/04/13 10:24:05;;;;;;;4.10;1.80;;;18.70;87.70;;;;;;4915254;29;20048;-50
2022/04/13 10:26:31;;;;;;;4.43;1.90;;;18.80;84.50;;;;;;4908247;29;20524;-49
2022/04/13 10:28:58;;;;;;;6.13;1.70;;;19.00;87.30;;;;;;4915192;29;20056;-50
2022/04/13 10:31:25;;;;;;;2.63;1.70;;;19.10;85.70;;;;;;4915014;29;20099;-50
2022/04/13 10:33:52;;;;;;;1.70;1.40;;;19.20;83.40;;;;;;4913571;29;20052;-49
2022/04/13 10:36:19;;;;;;;6.28;1.60;;;19.60;82.60;;;;;;4915206;29;20048;-49
2022/04/13 10:38:47;;;;;;;4.22;1.42;;;19.70;84.00;;;;;;4915163;29;20055;-50
2022/04/13 10:41:19;;;;;;;3.08;1.30;;;20.00;79.50;;;;;;4914882;29;20052;-50
2022/04/13 10:43:52;;;;;;;3.63;1.52;;;20.00;76.70;;;;;;4908681;29;20052;-50
2022/04/13 10:46:21;;;;;;;2.85;1.90;;;20.00;79.90;;;;;;4914403;29;20091;-50
2022/04/13 10:48:57;;;;;;;4.13;1.77;;;20.00;81.00;;;;;;4915118;29;20509;-52
2022/04/13 10:51:29;;;;;;;2.42;1.30;;;20.10;82.60;;;;;;4908644;29;20047;-51
2022/04/13 10:54:06;;;;;;;4.65;1.48;;;20.20;80.80;;;;;;4915084;29;20048;-49
2022/04/13 10:56:33;;;;;;;8.60;1.58;;;20.30;79.10;;;;;;4898141;29;20511;-50
2022/04/13 10:59:09;;;;;;;5.22;1.65;;;20.30;87.10;;;;;;4914786;29;20052;-50
2022/04/13 11:01:41;;;;;;;2.15;1.42;;;20.40;83.40;;;;;;4911699;29;20413;-50
2022/04/13 11:04:15;;;;;;;6.97;1.40;;;20.50;82.50;;;;;;4915053;29;20044;-50
2022/04/13 11:06:44;;;;;;;1.73;1.20;;;20.50;80.40;;;;;;4914815;29;20068;-49
2022/04/13 11:09:21;;;;;;;2.00;1.30;;;20.50;82.60;;;;;;4913483;29;20052;-50
2022/04/13 11:11:49;;;;;;;2.40;1.38;;;20.50;82.40;;;;;;4914695;29;20520;-51
2022/04/13 11:14:20;;;;;;;2.08;1.38;;;20.60;78.70;;;;;;4914912;29;20040;-50
2022/04/13 11:16:51;;;;;;;2.17;1.42;;;20.70;80.00;;;;;;4914607;29;20108;-50
2022/04/13 11:19:19;;;;;;;5.18;1.65;;;20.80;80.60;;;;;;4908852;29;20101;-52
2022/04/13 11:21:52;;;;;;;4.63;2.03;;;20.80;82.50;;;;;;4914534;29;20091;-50
2022/04/13 11:24:37;;;;;;;5.20;2.47;;;20.90;78.20;;;;;;4914951;29;20461;-50
2022/04/13 11:27:05;;;;;;;3.92;2.08;;;21.00;80.20;;;;;;4911668;29;20117;-50
2022/04/13 11:30:01;;;;;;;2.95;1.73;;;21.00;79.20;;;;;;4914084;29;20055;-51
2022/04/13 11:32:35;;;;;;;2.17;1.98;;;21.20;81.40;;;;;;4914893;29;20051;-50
2022/04/13 11:35:03;;;;;;;4.55;2.05;;;21.30;78.70;;;;;;4914830;29;20464;-49
2022/04/13 11:37:33;;;;;;;4.32;1.85;;;21.40;74.20;;;;;;4910940;29;20040;-52
2022/04/13 11:40:09;;;;;;;5.13;1.88;;;21.40;76.60;;;;;;4914287;29;20500;-51
2022/04/13 11:42:37;;;;;;;5.32;2.08;;;21.40;79.90;;;;;;4914901;29;20052;-52
2022/04/13 11:45:16;;;;;;;6.72;2.42;;;21.40;82.20;;;;;;4914592;29;20055;-49
2022/04/13 11:47:50;;;;;;;7.22;2.28;;;21.40;83.80;;;;;;4910917;29;20043;-51
2022/04/13 11:50:17;;;;;;;5.38;2.38;;;21.50;84.10;;;;;;4914049;29;20060;-50
2022/04/13 11:52:58;;;;;;;6.32;2.75;;;21.50;87.30;;;;;;4914694;29;20044;-49
2022/04/13 11:55:37;;;;;;;3.67;2.30;;;21.50;89.90;;;;;;4913758;29;20040;-50
2022/04/13 11:58:09;;;;;;;4.22;2.45;;;21.40;88.40;;;;;;4914432;29;20044;-49
2022/04/13 12:00:55;;;;;;;5.80;1.98;;;21.30;88.70;;;;;;4916898;29;20048;-52
2022/04/13 12:03:25;;;;;;;8.90;2.53;;;21.30;90.40;;;;;;4917946;29;20406;-49
2022/04/13 12:06:22;;;;;;;9.45;2.40;;;21.10;90.20;;;;;;4912819;29;20047;-49
2022/04/13 12:08:52;;;;;;;7.85;2.47;;;20.90;90.40;;;;;;4912514;29;20458;-51
2022/04/13 12:11:38;;;;;;;4.40;2.15;;;21.00;92.60;;;;;;4917686;29;20047;-49
2022/04/13 12:14:05;;;;;;;7.25;2.50;;;21.00;91.20;;;;;;4914699;29;20044;-50
2022/04/13 12:16:33;;;;;;;4.97;2.40;;;21.20;91.60;;;;;;4917362;29;20108;-49
2022/04/13 12:19:05;;;;;;;7.95;2.50;;;21.30;91.00;;;;;;4917727;29;20123;-51
2022/04/13 12:21:36;;;;;;;3.70;2.40;;;21.40;90.90;;;;;;4913757;29;20585;-49
2022/04/13 12:24:04;;;;;;;3.60;2.30;;;21.40;91.10;;;;;;4897576;29;20107;-51
2022/04/13 12:26:40;;;;;;;8.85;2.25;;;21.50;91.00;;;;;;4917286;29;20048;-49
2022/04/13 12:29:15;;;;;;;8.10;2.50;;;21.60;91.30;;;;;;4917388;29;20044;-50
2022/04/13 12:31:52;;;;;;;9.13;2.35;;;21.60;91.90;;;;;;4916041;29;20044;-52
2022/04/13 12:34:21;;;;;;;5.22;2.33;;;21.70;89.40;;;;;;4917065;29;20040;-51
2022/04/13 12:36:59;;;;;;;4.28;2.35;;;21.80;91.50;;;;;;4917185;29;20067;-51
2022/04/13 12:39:32;;;;;;;6.75;2.50;;;21.80;92.10;;;;;;4916894;29;20051;-51
2022/04/13 12:42:01;;;;;;;8.65;2.50;;;22.00;91.90;;;;;;4910711;29;20454;-50
2022/04/13 12:44:29;;;;;;;6.32;2.45;;;22.00;91.60;;;;;;4909255;29;20116;-51
2022/04/13 12:47:03;;;;;;;3.22;2.08;;;22.00;90.70;;;;;;4916930;29;20512;-50
2022/04/13 12:49:31;;;;;;;4.05;2.70;;;21.90;90.90;;;;;;4914050;29;20048;-51
2022/04/13 12:51:58;;;;;;;4.90;2.60;;;21.80;90.50;;;;;;4917538;29;20048;-50
2022/04/13 12:54:24;;;;;;;6.28;2.80;;;21.80;91.00;;;;;;4916883;29;20063;-50
2022/04/13 12:56:52;;;;;;;6.68;2.80;;;21.80;90.10;;;;;;4916843;29;20536;-50
2022/04/13 12:59:24;;;;;;;3.72;2.17;;;21.80;91.10;;;;;;4914225;29;20071;-51
2022/04/13 13:01:53;;;;;;;5.55;2.03;;;21.80;90.30;;;;;;4916853;29;20063;-50
2022/04/13 13:04:29;;;;;;;4.65;2.30;;;21.90;91.30;;;;;;4916864;29;20052;-51